createdAt,value
2023-05-11T00:01:56.629Z,8.70
2023-05-11T00:04:23.400Z,10.63
2023-05-11T00:06:50.491Z,9.20
2023-05-11T00:09:17.215Z,6.97
2023-05-11T00:11:43.887Z,7.78
2023-05-11T00:14:10.702Z,8.32
2023-05-11T00:16:37.364Z,8.57
2023-05-11T00:19:04.222Z,8.43
2023-05-11T00:21:32.153Z,11.38
2023-05-11T00:23:58.842Z,7.72
2023-05-11T00:26:26.757Z,11.20
2023-05-11T00:28:53.474Z,10.13
2023-05-11T00:31:20.509Z,10.55
2023-05-11T00:33:47.538Z,14.30
2023-05-11T00:36:15.087Z,9.82
2023-05-11T00:38:41.724Z,8.10
2023-05-11T00:41:08.755Z,8.68
2023-05-11T00:43:35.480Z,7.75
2023-05-11T00:46:03.391Z,8.43
2023-05-11T00:48:30.370Z,9.10
2023-05-11T00:50:59.376Z,11.07
2023-05-11T00:53:26.487Z,13.15
2023-05-11T00:55:55.413Z,11.80
2023-05-11T00:58:23.094Z,13.52
2023-05-11T01:00:51.331Z,15.07
2023-05-11T01:03:18.760Z,12.23
2023-05-11T01:06:06.206Z,8.88
2023-05-11T01:08:59.175Z,11.02
2023-05-11T01:11:33.833Z,14.40
2023-05-11T01:14:06.420Z,12.90
2023-05-11T01:16:40.240Z,11.38
2023-05-11T01:19:39.374Z,9.65
2023-05-11T01:22:28.885Z,11.75
2023-05-11T01:25:32.842Z,13.75
2023-05-11T01:28:23.122Z,16.10
2023-05-11T01:31:00.855Z,14.65
2023-05-11T01:33:35.124Z,19.88
2023-05-11T01:36:06.243Z,17.02
2023-05-11T01:38:38.458Z,16.20
2023-05-11T01:41:12.059Z,19.77
2023-05-11T01:43:41.057Z,21.77
2023-05-11T01:46:10.288Z,18.35
2023-05-11T01:48:40.606Z,19.92
2023-05-11T01:51:08.802Z,19.13
2023-05-11T01:53:38.353Z,17.85
2023-05-11T01:56:07.100Z,17.48
2023-05-11T01:58:37.305Z,20.50
2023-05-11T02:01:04.645Z,18.98
2023-05-11T02:03:33.051Z,20.13
2023-05-11T02:06:01.906Z,18.80
2023-05-11T02:08:31.204Z,23.17
2023-05-11T02:10:58.814Z,17.92
2023-05-11T02:13:27.445Z,17.58
2023-05-11T02:15:56.784Z,16.63
2023-05-11T02:18:23.767Z,23.98
2023-05-11T02:20:59.693Z,22.92
2023-05-11T02:23:27.659Z,19.58
2023-05-11T02:25:56.525Z,20.85
2023-05-11T02:28:23.664Z,20.73
2023-05-11T02:30:54.352Z,25.70
2023-05-11T02:33:27.997Z,20.95
2023-05-11T02:35:56.468Z,22.60
2023-05-11T02:38:33.536Z,20.65
2023-05-11T02:41:07.200Z,24.92
2023-05-11T02:46:06.954Z,22.10
2023-05-11T02:48:40.142Z,19.95
2023-05-11T02:51:11.038Z,22.52
2023-05-11T02:53:45.885Z,20.67
2023-05-11T02:56:13.895Z,21.42
2023-05-11T02:58:41.207Z,18.58
2023-05-11T03:01:24.563Z,23.17
2023-05-11T03:03:52.167Z,20.63
2023-05-11T03:06:18.898Z,21.65
2023-05-11T03:08:46.761Z,23.00
2023-05-11T03:11:15.406Z,20.75
2023-05-11T03:13:44.359Z,18.50
2023-05-11T03:16:13.493Z,17.20
2023-05-11T03:18:40.930Z,18.77
2023-05-11T03:21:08.285Z,14.63
2023-05-11T03:23:37.002Z,13.00
2023-05-11T03:26:06.153Z,11.52
2023-05-11T03:28:33.894Z,15.07
2023-05-11T03:31:05.432Z,17.23
2023-05-11T03:33:33.069Z,14.18
2023-05-11T03:36:04.353Z,15.52
2023-05-11T03:38:34.856Z,15.65
2023-05-11T03:41:02.671Z,14.82
2023-05-11T03:43:36.093Z,13.07
2023-05-11T03:46:04.664Z,12.52
2023-05-11T03:48:32.254Z,14.43
2023-05-11T03:50:59.708Z,15.73
2023-05-11T03:53:27.130Z,12.50
2023-05-11T03:55:54.794Z,16.38
2023-05-11T03:58:22.683Z,12.32
2023-05-11T04:00:49.595Z,15.10
2023-05-11T04:03:16.558Z,11.63
2023-05-11T04:05:43.491Z,12.20
2023-05-11T04:08:12.938Z,11.88
2023-05-11T04:10:39.644Z,13.55
2023-05-11T04:13:06.421Z,12.43
2023-05-11T04:15:33.263Z,15.48
2023-05-11T04:18:00.739Z,15.23
2023-05-11T04:20:27.824Z,12.25
2023-05-11T04:22:54.734Z,15.70
2023-05-11T04:25:21.559Z,20.38
2023-05-11T04:27:48.269Z,14.32
2023-05-11T04:30:16.339Z,14.45
2023-05-11T04:32:43.299Z,16.65
2023-05-11T04:35:10.271Z,15.48
2023-05-11T04:37:38.761Z,14.07
2023-05-11T04:40:08.171Z,18.85
2023-05-11T04:42:43.131Z,15.52
2023-05-11T04:45:14.751Z,20.65
2023-05-11T04:47:42.448Z,15.85
2023-05-11T04:50:11.450Z,13.70
2023-05-11T04:52:38.168Z,19.80
2023-05-11T04:55:06.184Z,13.10
2023-05-11T04:57:33.056Z,17.27
2023-05-11T05:00:02.211Z,16.02
2023-05-11T05:02:29.037Z,16.52
2023-05-11T05:04:55.898Z,12.07
2023-05-11T05:07:23.427Z,13.43
2023-05-11T05:09:50.326Z,14.75
2023-05-11T05:12:17.040Z,17.40
2023-05-11T05:14:43.736Z,17.23
2023-05-11T05:17:10.631Z,14.52
2023-05-11T05:19:38.191Z,15.85
2023-05-11T05:22:05.843Z,18.38
2023-05-11T05:24:33.160Z,17.38
2023-05-11T05:26:59.910Z,19.35
2023-05-11T05:29:27.123Z,19.25
2023-05-11T05:31:54.396Z,13.27
2023-05-11T05:34:22.285Z,16.45
2023-05-11T05:36:48.966Z,13.00
2023-05-11T05:39:15.736Z,15.52
2023-05-11T05:41:42.809Z,15.90
2023-05-11T05:44:10.459Z,14.10
2023-05-11T05:46:38.393Z,10.93
2023-05-11T05:49:05.486Z,13.60
2023-05-11T05:51:32.726Z,14.55
2023-05-11T05:53:59.579Z,13.15
2023-05-11T05:56:26.945Z,16.10
2023-05-11T05:58:53.660Z,12.23
2023-05-11T06:01:20.462Z,14.07
2023-05-11T06:03:48.348Z,14.98
2023-05-11T06:06:15.292Z,12.10
2023-05-11T06:08:43.440Z,12.70
2023-05-11T06:11:10.365Z,14.10
2023-05-11T06:13:37.071Z,12.32
2023-05-11T06:16:04.525Z,12.80
2023-05-11T06:18:33.837Z,14.70
2023-05-11T06:21:02.495Z,13.63
2023-05-11T06:23:31.234Z,14.75
2023-05-11T06:25:57.879Z,12.65
2023-05-11T06:28:26.048Z,13.02
2023-05-11T06:30:59.138Z,10.07
2023-05-11T06:33:27.843Z,9.95
2023-05-11T06:35:55.812Z,10.05
2023-05-11T06:38:22.809Z,12.00
2023-05-11T06:40:53.367Z,14.02
2023-05-11T06:43:20.122Z,10.95
2023-05-11T06:45:48.715Z,7.35
2023-05-11T06:48:17.292Z,7.80
2023-05-11T06:50:44.047Z,6.00
2023-05-11T06:53:13.262Z,5.07
2023-05-11T06:55:40.008Z,4.45
2023-05-11T06:58:06.930Z,4.03
2023-05-11T07:00:34.233Z,6.68
2023-05-11T07:03:01.012Z,4.50
2023-05-11T07:05:28.018Z,5.03
2023-05-11T07:07:54.741Z,5.60
2023-05-11T07:10:21.544Z,3.58
2023-05-11T07:12:48.834Z,4.35
2023-05-11T07:15:15.532Z,3.83
2023-05-11T07:17:42.218Z,4.25
2023-05-11T07:20:09.267Z,4.50
2023-05-11T07:22:36.074Z,4.00
2023-05-11T07:25:02.843Z,4.40
2023-05-11T07:27:31.079Z,4.15
2023-05-11T07:29:57.698Z,5.50
2023-05-11T07:32:24.685Z,3.95
2023-05-11T07:34:51.393Z,6.30
2023-05-11T07:37:18.306Z,4.43
2023-05-11T07:39:44.944Z,6.97
2023-05-11T07:42:12.619Z,2.25
2023-05-11T07:44:39.256Z,2.35
2023-05-11T07:47:06.059Z,2.00
2023-05-11T07:49:42.994Z,2.00
2023-05-11T07:52:11.119Z,1.98
2023-05-11T07:54:38.798Z,1.05
2023-05-11T07:57:05.751Z,1.40
2023-05-11T07:59:32.555Z,1.60
2023-05-11T08:01:59.496Z,1.63
2023-05-11T08:04:27.467Z,1.20
2023-05-11T08:06:55.325Z,1.15
2023-05-11T08:09:22.580Z,3.08
2023-05-11T08:11:49.813Z,2.20
2023-05-11T08:14:17.085Z,3.08
2023-05-11T08:16:44.000Z,2.97
2023-05-11T08:19:11.674Z,2.78
2023-05-11T08:21:38.618Z,3.00
2023-05-11T08:24:06.099Z,7.13
2023-05-11T08:26:33.501Z,4.22
2023-05-11T08:29:00.343Z,2.50
2023-05-11T08:31:27.851Z,2.67
2023-05-11T08:33:54.727Z,2.60
2023-05-11T08:36:21.953Z,4.10
2023-05-11T08:38:48.726Z,2.47
2023-05-11T08:41:15.372Z,4.10
2023-05-11T08:43:45.609Z,2.47
2023-05-11T08:46:17.670Z,7.50
2023-05-11T08:48:44.691Z,3.78
2023-05-11T08:51:11.500Z,4.60
2023-05-11T08:53:38.806Z,2.72
2023-05-11T08:56:08.405Z,3.75
2023-05-11T08:58:39.396Z,3.38
2023-05-11T09:01:06.553Z,3.63
2023-05-11T09:03:35.924Z,5.53
2023-05-11T09:06:07.069Z,2.50
2023-05-11T09:08:38.553Z,3.22
2023-05-11T09:11:06.389Z,3.92
2023-05-11T09:13:33.335Z,2.60
2023-05-11T09:16:00.159Z,2.63
2023-05-11T09:18:27.831Z,3.47
2023-05-11T09:20:54.599Z,2.95
2023-05-11T09:23:31.964Z,3.17
2023-05-11T09:25:58.714Z,3.45
2023-05-11T09:28:26.302Z,3.63
2023-05-11T09:30:53.559Z,3.60
2023-05-11T09:33:24.772Z,5.18
2023-05-11T09:35:51.879Z,6.97
2023-05-11T09:38:23.044Z,3.13
2023-05-11T09:40:56.914Z,3.30
2023-05-11T09:43:25.800Z,6.45
2023-05-11T09:45:54.821Z,5.28
2023-05-11T09:48:21.762Z,2.58
2023-05-11T09:50:50.188Z,1.80
2023-05-11T09:53:17.440Z,4.35
2023-05-11T09:55:55.368Z,2.28
2023-05-11T09:58:22.270Z,2.50
2023-05-11T10:00:53.784Z,4.25
2023-05-11T10:03:20.896Z,2.17
2023-05-11T10:05:59.117Z,4.45
2023-05-11T10:08:30.771Z,2.50
2023-05-11T10:10:58.225Z,4.25
2023-05-11T10:13:26.403Z,5.57
2023-05-11T10:15:54.942Z,5.35
2023-05-11T10:18:21.790Z,4.10
2023-05-11T10:20:49.820Z,4.30
2023-05-11T10:23:17.647Z,5.63
2023-05-11T10:25:45.125Z,4.18
2023-05-11T10:28:11.963Z,6.18
2023-05-11T10:30:38.982Z,5.88
2023-05-11T10:33:06.916Z,6.22
2023-05-11T10:35:35.010Z,4.10
2023-05-11T10:38:02.704Z,4.07
2023-05-11T10:40:30.139Z,6.32
2023-05-11T10:43:37.481Z,3.97
2023-05-11T10:46:33.365Z,4.18
2023-05-11T10:49:28.678Z,3.85
2023-05-11T10:52:08.114Z,6.43
2023-05-11T10:55:05.805Z,4.82
2023-05-11T10:58:10.374Z,5.07
2023-05-11T11:01:20.552Z,7.32
2023-05-11T11:03:59.438Z,5.70
2023-05-11T11:06:28.423Z,5.38
2023-05-11T11:08:57.922Z,5.60
2023-05-11T11:11:45.772Z,6.18
2023-05-11T11:14:14.721Z,6.10
2023-05-11T11:17:02.329Z,5.15
2023-05-11T11:19:31.812Z,5.72
2023-05-11T11:22:00.200Z,10.20
2023-05-11T11:24:43.251Z,5.53
2023-05-11T11:27:10.202Z,10.38
2023-05-11T11:29:40.240Z,7.38
2023-05-11T11:32:25.128Z,5.82
2023-05-11T11:34:52.072Z,8.93
2023-05-11T11:37:20.520Z,9.05
2023-05-11T11:39:50.930Z,9.05
2023-05-11T11:42:42.004Z,5.68
2023-05-11T11:45:30.369Z,4.60
2023-05-11T11:48:07.595Z,4.97
2023-05-11T11:50:35.112Z,5.55
2023-05-11T11:53:03.919Z,5.88
2023-05-11T11:55:52.671Z,5.22
2023-05-11T11:58:41.825Z,6.82
2023-05-11T12:01:34.776Z,5.03
2023-05-11T12:04:04.914Z,4.63
2023-05-11T12:06:40.326Z,5.20
2023-05-11T12:09:08.022Z,8.80
2023-05-11T12:11:34.922Z,6.35
2023-05-11T12:14:03.028Z,8.60
2023-05-11T12:16:30.095Z,7.78
2023-05-11T12:19:01.591Z,7.32
2023-05-11T12:21:33.834Z,7.28
2023-05-11T12:24:02.780Z,8.85
2023-05-11T12:26:30.940Z,19.25
2023-05-11T12:29:09.110Z,10.68
2023-05-11T12:31:45.697Z,9.23
2023-05-11T12:34:17.730Z,8.90
2023-05-11T12:36:46.202Z,8.98
2023-05-11T12:39:21.653Z,7.38
2023-05-11T12:41:50.384Z,8.95
2023-05-11T12:44:18.926Z,7.45
2023-05-11T12:46:50.630Z,7.75
2023-05-11T12:49:26.178Z,5.38
2023-05-11T12:52:00.373Z,8.43
2023-05-11T12:54:38.052Z,6.97
2023-05-11T12:57:07.492Z,6.38
2023-05-11T12:59:40.806Z,8.50
2023-05-11T13:02:17.170Z,7.32
2023-05-11T13:04:44.800Z,5.72
2023-05-11T13:07:13.986Z,7.75
2023-05-11T13:09:41.366Z,8.38
2023-05-11T13:12:18.226Z,6.07
2023-05-11T13:14:49.564Z,5.60
2023-05-11T13:17:33.782Z,7.38
2023-05-11T13:20:19.699Z,5.75
2023-05-11T13:22:47.842Z,7.32
2023-05-11T13:25:16.816Z,6.05
2023-05-11T13:27:43.977Z,5.65
2023-05-11T13:30:11.465Z,6.22
2023-05-11T13:32:39.028Z,6.15
2023-05-11T13:35:06.819Z,6.55
2023-05-11T13:37:33.596Z,10.35
2023-05-11T13:40:00.806Z,7.10
2023-05-11T13:42:28.856Z,7.80
2023-05-11T13:44:55.691Z,5.93
2023-05-11T13:47:22.658Z,5.60
2023-05-11T13:49:49.350Z,8.50
2023-05-11T13:52:16.121Z,7.28
2023-05-11T13:54:42.799Z,10.52
2023-05-11T13:57:09.573Z,7.78
2023-05-11T13:59:36.356Z,6.15
2023-05-11T14:02:03.133Z,5.43
2023-05-11T14:04:29.938Z,4.72
2023-05-11T14:06:56.875Z,6.00
2023-05-11T14:09:23.852Z,6.20
2023-05-11T14:11:50.767Z,6.13
2023-05-11T14:14:19.578Z,6.03
2023-05-11T14:16:46.346Z,6.43
2023-05-11T14:19:14.497Z,5.25
2023-05-11T14:21:44.095Z,5.38
2023-05-11T14:24:12.648Z,4.85
2023-05-11T14:26:40.223Z,6.18
2023-05-11T14:29:07.029Z,7.20
2023-05-11T14:31:35.411Z,5.32
2023-05-11T14:34:03.549Z,5.10
2023-05-11T14:36:31.680Z,5.20
2023-05-11T14:38:58.512Z,4.43
2023-05-11T14:41:25.576Z,3.55
2023-05-11T14:43:52.492Z,4.82
2023-05-11T14:46:19.540Z,4.72
2023-05-11T14:48:46.367Z,4.72
2023-05-11T14:51:13.160Z,8.10
2023-05-11T14:53:39.877Z,5.30
2023-05-11T14:56:11.923Z,5.20
2023-05-11T14:58:41.577Z,4.00
2023-05-11T15:01:08.586Z,6.03
2023-05-11T15:03:37.208Z,5.82
2023-05-11T15:06:04.434Z,6.45
2023-05-11T15:08:32.295Z,5.07
2023-05-11T15:10:58.999Z,4.72
2023-05-11T15:13:25.874Z,5.13
2023-05-11T15:15:52.635Z,5.80
2023-05-11T15:18:19.504Z,7.60
2023-05-11T15:20:46.682Z,5.68
2023-05-11T15:23:17.201Z,5.93
2023-05-11T15:25:44.956Z,7.90
2023-05-11T15:28:13.288Z,7.03
2023-05-11T15:30:41.421Z,5.82
2023-05-11T15:33:10.595Z,5.85
2023-05-11T15:35:38.044Z,5.95
2023-05-11T15:38:05.481Z,8.25
2023-05-11T15:40:32.512Z,6.53
2023-05-11T15:42:59.227Z,4.55
2023-05-11T15:45:26.464Z,4.55
2023-05-11T15:47:54.159Z,4.22
2023-05-11T15:50:22.043Z,5.85
2023-05-11T15:52:49.158Z,5.70
2023-05-11T15:55:16.085Z,5.93
2023-05-11T15:57:43.018Z,4.70
2023-05-11T16:00:10.513Z,7.40
2023-05-11T16:02:39.675Z,7.38
2023-05-11T16:05:06.852Z,8.68
2023-05-11T16:07:33.618Z,9.50
2023-05-11T16:10:00.523Z,9.20
2023-05-11T16:12:27.772Z,6.78
2023-05-11T16:14:54.489Z,10.63
2023-05-11T16:17:21.439Z,10.77
2023-05-11T16:19:48.550Z,12.25
2023-05-11T16:22:15.238Z,10.63
2023-05-11T16:24:41.950Z,12.48
2023-05-11T16:27:08.588Z,11.90
2023-05-11T16:29:36.274Z,12.15
2023-05-11T16:32:03.096Z,11.77
2023-05-11T16:34:29.966Z,12.48
2023-05-11T16:36:58.764Z,14.45
2023-05-11T16:39:26.698Z,16.73
2023-05-11T16:41:53.324Z,14.38
2023-05-11T16:44:19.986Z,13.25
2023-05-11T16:46:47.510Z,15.80
2023-05-11T16:49:14.227Z,14.73
2023-05-11T16:51:40.864Z,12.75
2023-05-11T16:54:07.833Z,15.25
2023-05-11T16:56:34.483Z,14.32
2023-05-11T16:59:01.140Z,14.95
2023-05-11T17:01:28.464Z,17.80
2023-05-11T17:03:55.223Z,13.05
2023-05-11T17:06:23.866Z,11.95
2023-05-11T17:08:51.190Z,15.65
2023-05-11T17:11:17.938Z,15.88
2023-05-11T17:13:44.611Z,14.43
2023-05-11T17:16:11.662Z,20.40
2023-05-11T17:18:38.407Z,15.80
2023-05-11T17:21:05.546Z,14.32
2023-05-11T17:23:32.759Z,15.55
2023-05-11T17:25:59.797Z,18.55
2023-05-11T17:28:27.399Z,19.30
2023-05-11T17:30:54.552Z,18.52
2023-05-11T17:33:23.383Z,18.70
2023-05-11T17:35:51.290Z,15.80
2023-05-11T17:38:17.966Z,18.45
2023-05-11T17:40:45.016Z,21.92
2023-05-11T17:43:11.784Z,15.95
2023-05-11T17:45:38.745Z,15.23
2023-05-11T17:48:05.773Z,19.25
2023-05-11T17:50:33.302Z,17.30
2023-05-11T17:52:59.985Z,17.50
2023-05-11T17:55:27.642Z,16.98
2023-05-11T17:57:54.406Z,16.30
2023-05-11T18:00:22.026Z,14.43
2023-05-11T18:02:49.183Z,13.38
2023-05-11T18:05:16.238Z,20.15
2023-05-11T18:07:42.981Z,17.90
2023-05-11T18:10:11.037Z,16.38
2023-05-11T18:12:38.041Z,20.17
2023-05-11T18:15:08.525Z,18.40
2023-05-11T18:17:35.457Z,20.70
2023-05-11T18:20:04.946Z,22.25
2023-05-11T18:22:31.632Z,25.70
2023-05-11T18:24:58.295Z,22.98
2023-05-11T18:27:25.704Z,21.60
2023-05-11T18:29:53.447Z,23.45
2023-05-11T18:32:20.479Z,21.83
2023-05-11T18:34:47.984Z,22.92
2023-05-11T18:37:14.771Z,22.50
2023-05-11T18:39:41.422Z,22.55
2023-05-11T18:42:08.157Z,19.48
2023-05-11T18:44:35.334Z,30.73
2023-05-11T18:47:03.749Z,21.30
2023-05-11T18:49:30.494Z,19.42
2023-05-11T18:51:58.141Z,22.25
2023-05-11T18:54:24.945Z,20.77
2023-05-11T18:56:51.700Z,26.92
2023-05-11T18:59:18.563Z,24.58
2023-05-11T19:01:48.421Z,26.75
2023-05-11T19:04:19.489Z,33.05
2023-05-11T19:06:46.351Z,29.40
2023-05-11T19:09:13.083Z,28.02
2023-05-11T19:11:39.757Z,27.05
2023-05-11T19:14:07.567Z,27.58
2023-05-11T19:16:35.761Z,25.13
2023-05-11T19:19:02.806Z,26.23
2023-05-11T19:21:29.701Z,28.35
2023-05-11T19:23:56.366Z,24.15
2023-05-11T19:26:23.072Z,25.58
2023-05-11T19:28:49.850Z,28.60
2023-05-11T19:31:16.642Z,31.35
2023-05-11T19:33:43.424Z,28.02
2023-05-11T19:36:10.093Z,29.13
2023-05-11T19:38:37.989Z,30.50
2023-05-11T19:41:04.637Z,34.33
2023-05-11T19:43:31.330Z,29.80
2023-05-11T19:45:58.789Z,35.97
2023-05-11T19:48:25.600Z,34.10
2023-05-11T19:50:52.530Z,33.85
2023-05-11T19:53:19.179Z,37.33
2023-05-11T19:55:47.919Z,36.65
2023-05-11T19:58:14.966Z,38.38
2023-05-11T20:00:42.325Z,38.33
2023-05-11T20:03:09.133Z,40.15
2023-05-11T20:05:36.609Z,38.80
2023-05-11T20:08:03.361Z,43.97
2023-05-11T20:10:30.447Z,38.35
2023-05-11T20:12:58.882Z,40.63
2023-05-11T20:15:26.477Z,41.15
2023-05-11T20:17:53.206Z,42.13
2023-05-11T20:20:20.071Z,40.20
2023-05-11T20:22:47.012Z,39.92
2023-05-11T20:25:18.480Z,43.28
2023-05-11T20:30:12.907Z,51.20
2023-05-11T20:32:39.691Z,41.35
2023-05-11T20:35:06.968Z,40.47
2023-05-11T20:37:33.767Z,42.83
2023-05-11T20:40:00.439Z,41.17
2023-05-11T20:42:27.753Z,41.90
2023-05-11T20:44:54.448Z,48.22
2023-05-11T20:47:21.297Z,39.78
2023-05-11T20:49:47.958Z,42.50
2023-05-11T20:52:15.156Z,42.30
2023-05-11T20:54:42.133Z,38.65
2023-05-11T20:57:08.993Z,43.08
2023-05-11T21:02:05.478Z,45.55
2023-05-11T21:04:32.202Z,42.38
2023-05-11T21:06:58.893Z,44.78
2023-05-11T21:09:25.772Z,52.80
2023-05-11T21:11:52.594Z,45.38
2023-05-11T21:14:20.053Z,53.67
2023-05-11T21:16:47.233Z,44.17
2023-05-11T21:19:15.902Z,42.17
2023-05-11T21:21:43.169Z,52.28
2023-05-11T21:24:09.899Z,50.20
2023-05-11T21:26:36.612Z,53.42
2023-05-11T21:29:03.289Z,45.72
2023-05-11T21:31:30.032Z,50.72
2023-05-11T21:33:57.660Z,55.33
2023-05-11T21:36:25.000Z,49.13
2023-05-11T21:38:51.702Z,55.95
2023-05-11T21:41:18.418Z,50.13
2023-05-11T21:43:45.450Z,56.80
2023-05-11T21:46:12.708Z,51.53
2023-05-11T21:48:39.548Z,55.38
2023-05-11T21:51:06.321Z,53.38
2023-05-11T21:53:33.073Z,52.28
2023-05-11T21:55:59.970Z,48.63
2023-05-11T21:58:27.448Z,53.45
2023-05-11T22:00:54.985Z,50.85
2023-05-11T22:03:21.829Z,53.00
2023-05-11T22:05:51.454Z,57.05
2023-05-11T22:08:18.192Z,55.85
2023-05-11T22:10:44.908Z,55.85
2023-05-11T22:13:11.633Z,57.10
2023-05-11T22:15:38.413Z,53.55
2023-05-11T22:18:05.245Z,49.97
2023-05-11T22:20:32.007Z,48.17
2023-05-11T22:22:59.247Z,56.65
2023-05-11T22:25:28.029Z,51.63
2023-05-11T22:27:54.719Z,47.72
2023-05-11T22:30:21.805Z,49.63
2023-05-11T22:32:48.658Z,55.58
2023-05-11T22:35:16.432Z,47.08
2023-05-11T22:37:43.227Z,59.85
2023-05-11T22:40:10.332Z,48.65
2023-05-11T22:42:37.828Z,58.50
2023-05-11T22:45:05.000Z,65.38
2023-05-11T22:47:31.902Z,60.03
2023-05-11T22:49:58.600Z,65.15
2023-05-11T22:52:25.264Z,54.25
2023-05-11T22:54:55.200Z,56.63
2023-05-11T22:57:24.411Z,65.80
2023-05-11T22:59:51.353Z,55.90
2023-05-11T23:02:18.033Z,56.92
2023-05-11T23:04:50.326Z,56.92
2023-05-11T23:07:18.085Z,51.00
2023-05-11T23:09:45.088Z,58.60
2023-05-11T23:12:11.947Z,53.47
2023-05-11T23:14:38.598Z,57.33
2023-05-11T23:17:05.296Z,49.17
2023-05-11T23:19:32.115Z,54.35
2023-05-11T23:21:58.921Z,53.92
2023-05-11T23:24:25.588Z,52.70
2023-05-11T23:26:52.308Z,53.55
2023-05-11T23:29:19.193Z,50.13
2023-05-11T23:31:46.416Z,48.50
2023-05-11T23:34:13.216Z,52.75
2023-05-11T23:36:39.938Z,56.25
2023-05-11T23:39:06.693Z,60.38
2023-05-11T23:41:33.439Z,49.42
2023-05-11T23:44:00.545Z,49.30
2023-05-11T23:46:28.278Z,53.65
2023-05-11T23:48:55.759Z,49.20
2023-05-11T23:51:22.442Z,53.22
2023-05-11T23:53:49.090Z,56.55
2023-05-11T23:56:15.759Z,50.85
2023-05-11T23:58:45.520Z,61.17
